首页
METAR-TAF:

METAR-TAF

机场 :

Figari, 法国

纬度: 41-30N, 经度: 009-06E, 海拔: 26米

当前天气观测

该预报发布于11分钟前的05:30 UTC
静风
温度 15°C
湿度 94%
气压 1023 hPa
能见度10公里或以上
1500米以下无云,无积雨云

METAR: LFKF 250530Z AUTO 00000KT CAVOK 15/14 Q1023 BECMG 08012KT

时间: 07:41 (05:41 UTC)

预报

该预报发布于3小时和41分钟前的02:00 UTC
预报有效从25日的 03点(UTC)到 26日的 03点(UTC)
风速3节,风向多变
能见度10公里或以上
1500米以下无云,无积雨云
成为
从 25日的 07点(UTC)到 25日的 09点(UTC)
风速12节,风向

TAF: LFKF 250200Z 2503/2603 VRB03KT CAVOK BECMG 2507/2509 08012KT

超过4000个机场的气象观测和天气预报(METAR&TAF报告)。

可查询的气象台以黄色和红色小点在地图上表示。

将鼠标移到小点上方,可查看气象台名称。

然后点击查看天气观测和预报。

如需切换地图:点击带黑十字的绿色按钮放大地图;点击带横线的绿色按钮缩小地图;或者点击绿色箭头查看邻近地区的地图。


METAR-TAF: